sensor_id;sensor_type;location;lat;lon;timestamp;pressure;altitude;pressure_sealevel;temperature;humidity
84859;BME280;75115;42.984;23.244;2024-03-02T00:01:51;94755.63;;;7.78;76.50
84859;BME280;75115;42.984;23.244;2024-03-02T00:04:16;94747.88;;;7.86;76.45
84859;BME280;75115;42.984;23.244;2024-03-02T00:06:42;94754.13;;;7.92;77.15
84859;BME280;75115;42.984;23.244;2024-03-02T00:09:09;94746.56;;;7.90;77.14
84859;BME280;75115;42.984;23.244;2024-03-02T00:11:37;94757.53;;;7.92;77.08
84859;BME280;75115;42.984;23.244;2024-03-02T00:14:03;94760.94;;;7.93;75.62
84859;BME280;75115;42.984;23.244;2024-03-02T00:16:32;94749.50;;;7.79;76.14
84859;BME280;75115;42.984;23.244;2024-03-02T00:19:05;94769.94;;;7.97;76.38
84859;BME280;75115;42.984;23.244;2024-03-02T00:21:32;94768.28;;;8.04;77.08
84859;BME280;75115;42.984;23.244;2024-03-02T00:23:58;94758.97;;;7.95;75.93
84859;BME280;75115;42.984;23.244;2024-03-02T00:26:25;94766.56;;;7.96;75.92
84859;BME280;75115;42.984;23.244;2024-03-02T00:28:56;94770.34;;;8.09;76.57
84859;BME280;75115;42.984;23.244;2024-03-02T00:31:22;94772.00;;;8.10;76.31
84859;BME280;75115;42.984;23.244;2024-03-02T00:33:48;94770.22;;;8.10;76.00
84859;BME280;75115;42.984;23.244;2024-03-02T00:36:16;94775.38;;;8.10;76.57
84859;BME280;75115;42.984;23.244;2024-03-02T00:38:47;94775.69;;;8.07;76.30
84859;BME280;75115;42.984;23.244;2024-03-02T00:44:00;94765.19;;;8.09;76.73
84859;BME280;75115;42.984;23.244;2024-03-02T00:46:28;94761.22;;;7.98;76.42
84859;BME280;75115;42.984;23.244;2024-03-02T00:51:22;94756.31;;;8.11;76.52
84859;BME280;75115;42.984;23.244;2024-03-02T00:53:49;94753.41;;;8.14;77.49
84859;BME280;75115;42.984;23.244;2024-03-02T00:56:16;94764.19;;;8.18;76.33
84859;BME280;75115;42.984;23.244;2024-03-02T00:58:42;94767.44;;;8.12;76.17
84859;BME280;75115;42.984;23.244;2024-03-02T01:01:07;94769.69;;;8.15;76.13
84859;BME280;75115;42.984;23.244;2024-03-02T01:03:33;94766.78;;;8.18;76.73
84859;BME280;75115;42.984;23.244;2024-03-02T01:05:59;94765.47;;;8.22;76.75
84859;BME280;75115;42.984;23.244;2024-03-02T01:08:25;94757.72;;;8.22;76.78
84859;BME280;75115;42.984;23.244;2024-03-02T01:10:51;94764.16;;;8.26;77.69
84859;BME280;75115;42.984;23.244;2024-03-02T01:13:16;94743.50;;;8.26;77.41
84859;BME280;75115;42.984;23.244;2024-03-02T01:15:41;94756.06;;;8.29;76.14
84859;BME280;75115;42.984;23.244;2024-03-02T01:18:07;94747.34;;;8.30;77.40
84859;BME280;75115;42.984;23.244;2024-03-02T01:20:33;94740.91;;;8.26;76.88
84859;BME280;75115;42.984;23.244;2024-03-02T01:22:58;94738.31;;;8.26;75.67
84859;BME280;75115;42.984;23.244;2024-03-02T01:25:24;94736.88;;;8.23;76.86
84859;BME280;75115;42.984;23.244;2024-03-02T01:27:50;94731.88;;;8.22;75.91
84859;BME280;75115;42.984;23.244;2024-03-02T01:30:15;94734.47;;;8.22;76.08
84859;BME280;75115;42.984;23.244;2024-03-02T01:32:41;94742.03;;;8.23;77.18
84859;BME280;75115;42.984;23.244;2024-03-02T01:35:06;94739.13;;;8.27;76.40
84859;BME280;75115;42.984;23.244;2024-03-02T01:37:32;94740.78;;;8.19;77.22
84859;BME280;75115;42.984;23.244;2024-03-02T01:39:58;94734.91;;;8.25;77.88
84859;BME280;75115;42.984;23.244;2024-03-02T01:42:24;94730.56;;;8.26;76.82
84859;BME280;75115;42.984;23.244;2024-03-02T01:44:49;94725.28;;;8.19;76.48
84859;BME280;75115;42.984;23.244;2024-03-02T01:47:15;94721.25;;;8.17;76.65
84859;BME280;75115;42.984;23.244;2024-03-02T01:49:40;94721.59;;;8.14;77.43
84859;BME280;75115;42.984;23.244;2024-03-02T01:52:06;94718.13;;;7.98;77.70
84859;BME280;75115;42.984;23.244;2024-03-02T01:54:32;94719.16;;;7.81;78.26
84859;BME280;75115;42.984;23.244;2024-03-02T01:56:58;94717.56;;;7.80;77.72
84859;BME280;75115;42.984;23.244;2024-03-02T01:59:23;94715.84;;;7.64;78.52
84859;BME280;75115;42.984;23.244;2024-03-02T02:01:49;94714.03;;;7.73;78.24
84859;BME280;75115;42.984;23.244;2024-03-02T02:04:14;94717.91;;;7.77;78.25
84859;BME280;75115;42.984;23.244;2024-03-02T02:06:39;94717.72;;;7.79;77.70
84859;BME280;75115;42.984;23.244;2024-03-02T02:09:06;94721.13;;;7.71;78.19
84859;BME280;75115;42.984;23.244;2024-03-02T02:11:33;94720.81;;;7.74;78.59
84859;BME280;75115;42.984;23.244;2024-03-02T02:13:58;94717.75;;;7.70;78.61
84859;BME280;75115;42.984;23.244;2024-03-02T02:16:24;94710.19;;;7.69;78.50
84859;BME280;75115;42.984;23.244;2024-03-02T02:18:49;94719.88;;;7.67;78.69
84859;BME280;75115;42.984;23.244;2024-03-02T02:21:15;94719.38;;;7.71;79.24
84859;BME280;75115;42.984;23.244;2024-03-02T02:23:40;94715.81;;;7.72;78.84
84859;BME280;75115;42.984;23.244;2024-03-02T02:26:07;94719.53;;;7.70;79.19
84859;BME280;75115;42.984;23.244;2024-03-02T02:28:32;94718.06;;;7.75;78.99
84859;BME280;75115;42.984;23.244;2024-03-02T02:30:58;94725.47;;;7.79;78.33
84859;BME280;75115;42.984;23.244;2024-03-02T02:33:25;94727.09;;;7.80;78.31
84859;BME280;75115;42.984;23.244;2024-03-02T02:35:50;94723.72;;;7.71;78.97
84859;BME280;75115;42.984;23.244;2024-03-02T02:38:16;94714.84;;;7.73;79.34
84859;BME280;75115;42.984;23.244;2024-03-02T02:40:41;94723.06;;;7.77;78.42
84859;BME280;75115;42.984;23.244;2024-03-02T02:43:06;94721.75;;;7.81;77.83
84859;BME280;75115;42.984;23.244;2024-03-02T02:45:32;94719.16;;;7.81;78.68
84859;BME280;75115;42.984;23.244;2024-03-02T02:47:57;94719.34;;;7.80;78.38
84859;BME280;75115;42.984;23.244;2024-03-02T02:50:23;94719.34;;;7.80;77.50
84859;BME280;75115;42.984;23.244;2024-03-02T02:52:48;94714.19;;;7.80;78.83
84859;BME280;75115;42.984;23.244;2024-03-02T02:55:13;94706.75;;;7.85;77.72
84859;BME280;75115;42.984;23.244;2024-03-02T02:57:41;94713.50;;;7.86;78.28
84859;BME280;75115;42.984;23.244;2024-03-02T03:00:12;94711.91;;;7.85;78.65
84859;BME280;75115;42.984;23.244;2024-03-02T03:02:43;94720.75;;;7.90;77.88
84859;BME280;75115;42.984;23.244;2024-03-02T03:05:10;94714.44;;;7.54;79.41
84859;BME280;75115;42.984;23.244;2024-03-02T03:07:36;94712.47;;;7.64;78.92
84859;BME280;75115;42.984;23.244;2024-03-02T03:10:03;94716.63;;;7.73;78.78
84859;BME280;75115;42.984;23.244;2024-03-02T03:12:29;94723.06;;;7.77;78.35
84859;BME280;75115;42.984;23.244;2024-03-02T03:14:55;94719.22;;;7.65;79.96
84859;BME280;75115;42.984;23.244;2024-03-02T03:17:21;94718.00;;;7.44;79.82
84859;BME280;75115;42.984;23.244;2024-03-02T03:19:47;94732.19;;;7.48;79.79
84859;BME280;75115;42.984;23.244;2024-03-02T03:22:12;94726.81;;;7.58;79.36
84859;BME280;75115;42.984;23.244;2024-03-02T03:24:38;94720.34;;;7.62;79.52
84859;BME280;75115;42.984;23.244;2024-03-02T03:27:04;94724.25;;;7.58;79.55
84859;BME280;75115;42.984;23.244;2024-03-02T03:29:29;94730.88;;;7.61;78.80
84859;BME280;75115;42.984;23.244;2024-03-02T03:31:54;94726.47;;;7.69;79.69
84859;BME280;75115;42.984;23.244;2024-03-02T03:34:20;94724.38;;;7.73;79.05
84859;BME280;75115;42.984;23.244;2024-03-02T03:36:45;94728.56;;;7.74;79.22
84859;BME280;75115;42.984;23.244;2024-03-02T03:39:10;94724.84;;;7.77;78.14
84859;BME280;75115;42.984;23.244;2024-03-02T03:41:36;94725.31;;;7.80;78.69
84859;BME280;75115;42.984;23.244;2024-03-02T03:44:01;94722.22;;;7.85;78.85
84859;BME280;75115;42.984;23.244;2024-03-02T03:46:27;94717.41;;;7.82;78.69
84859;BME280;75115;42.984;23.244;2024-03-02T03:48:52;94726.75;;;7.83;78.83
84859;BME280;75115;42.984;23.244;2024-03-02T03:51:17;94719.47;;;7.86;78.48
84859;BME280;75115;42.984;23.244;2024-03-02T03:53:43;94718.34;;;7.89;77.60
84859;BME280;75115;42.984;23.244;2024-03-02T03:56:08;94716.38;;;7.91;78.61
84859;BME280;75115;42.984;23.244;2024-03-02T03:58:34;94712.00;;;7.91;79.11
84859;BME280;75115;42.984;23.244;2024-03-02T04:00:59;94710.69;;;7.95;78.23
84859;BME280;75115;42.984;23.244;2024-03-02T04:03:24;94719.25;;;7.96;78.51
84859;BME280;75115;42.984;23.244;2024-03-02T04:05:50;94720.44;;;7.85;78.17
84859;BME280;75115;42.984;23.244;2024-03-02T04:08:16;94716.13;;;7.78;78.51
84859;BME280;75115;42.984;23.244;2024-03-02T04:10:41;94719.75;;;7.60;79.33
84859;BME280;75115;42.984;23.244;2024-03-02T04:13:07;94720.88;;;7.58;79.53
84859;BME280;75115;42.984;23.244;2024-03-02T04:15:33;94709.22;;;7.70;80.05
84859;BME280;75115;42.984;23.244;2024-03-02T04:17:58;94708.56;;;7.76;78.86
84859;BME280;75115;42.984;23.244;2024-03-02T04:20:23;94713.03;;;7.82;78.77
84859;BME280;75115;42.984;23.244;2024-03-02T04:22:49;94714.19;;;7.80;78.78
84859;BME280;75115;42.984;23.244;2024-03-02T04:25:14;94708.91;;;7.65;79.93
84859;BME280;75115;42.984;23.244;2024-03-02T04:27:41;94711.50;;;7.65;79.31
84859;BME280;75115;42.984;23.244;2024-03-02T04:30:06;94715.50;;;7.75;79.54
84859;BME280;75115;42.984;23.244;2024-03-02T04:32:32;94718.53;;;7.79;79.29
84859;BME280;75115;42.984;23.244;2024-03-02T04:34:57;94719.00;;;7.83;79.17
84859;BME280;75115;42.984;23.244;2024-03-02T04:37:23;94716.69;;;7.88;78.68
84859;BME280;75115;42.984;23.244;2024-03-02T04:39:48;94719.59;;;7.93;78.48
84859;BME280;75115;42.984;23.244;2024-03-02T04:42:13;94719.44;;;7.94;78.69
84859;BME280;75115;42.984;23.244;2024-03-02T04:44:39;94723.00;;;7.93;78.20
84859;BME280;75115;42.984;23.244;2024-03-02T04:47:04;94726.25;;;7.79;79.57
84859;BME280;75115;42.984;23.244;2024-03-02T04:49:30;94721.47;;;7.76;79.69
84859;BME280;75115;42.984;23.244;2024-03-02T04:51:56;94721.59;;;7.74;78.40
84859;BME280;75115;42.984;23.244;2024-03-02T04:54:22;94728.59;;;7.58;80.56
84859;BME280;75115;42.984;23.244;2024-03-02T04:56:48;94730.03;;;7.68;79.29
84859;BME280;75115;42.984;23.244;2024-03-02T04:59:17;94722.75;;;7.72;79.14
84859;BME280;75115;42.984;23.244;2024-03-02T05:01:43;94725.00;;;7.75;79.42
84859;BME280;75115;42.984;23.244;2024-03-02T05:04:09;94719.38;;;7.71;79.41
84859;BME280;75115;42.984;23.244;2024-03-02T05:06:37;94725.16;;;7.73;78.77
84859;BME280;75115;42.984;23.244;2024-03-02T05:09:03;94722.09;;;7.78;79.47
84859;BME280;75115;42.984;23.244;2024-03-02T05:11:29;94711.75;;;7.78;78.90
84859;BME280;75115;42.984;23.244;2024-03-02T05:14:13;94720.16;;;7.80;78.68
84859;BME280;75115;42.984;23.244;2024-03-02T05:16:39;94736.56;;;7.87;78.44
84859;BME280;75115;42.984;23.244;2024-03-02T05:19:05;94731.41;;;7.87;79.11
84859;BME280;75115;42.984;23.244;2024-03-02T05:21:34;94733.84;;;7.89;79.17
84859;BME280;75115;42.984;23.244;2024-03-02T05:23:59;94742.63;;;7.71;79.14
84859;BME280;75115;42.984;23.244;2024-03-02T05:26:25;94738.25;;;7.72;78.65
84859;BME280;75115;42.984;23.244;2024-03-02T05:28:51;94745.97;;;7.80;79.16
84859;BME280;75115;42.984;23.244;2024-03-02T05:31:16;94748.38;;;7.82;79.71
84859;BME280;75115;42.984;23.244;2024-03-02T05:33:42;94755.94;;;7.83;79.64
84859;BME280;75115;42.984;23.244;2024-03-02T05:36:07;94753.75;;;7.72;79.49
84859;BME280;75115;42.984;23.244;2024-03-02T05:38:36;94760.50;;;7.73;78.89
84859;BME280;75115;42.984;23.244;2024-03-02T05:41:02;94754.66;;;7.79;78.56
84859;BME280;75115;42.984;23.244;2024-03-02T05:43:28;94769.19;;;7.80;79.10
84859;BME280;75115;42.984;23.244;2024-03-02T05:45:53;94761.59;;;7.79;78.61
84859;BME280;75115;42.984;23.244;2024-03-02T05:48:19;94764.56;;;7.67;78.88
84859;BME280;75115;42.984;23.244;2024-03-02T05:50:44;94772.69;;;7.40;80.78
84859;BME280;75115;42.984;23.244;2024-03-02T05:53:09;94769.31;;;7.31;81.58
84859;BME280;75115;42.984;23.244;2024-03-02T05:55:35;94769.78;;;7.43;80.86
84859;BME280;75115;42.984;23.244;2024-03-02T05:58:00;94775.91;;;7.50;79.80
84859;BME280;75115;42.984;23.244;2024-03-02T06:00:32;94772.81;;;7.55;79.84
84859;BME280;75115;42.984;23.244;2024-03-02T06:02:58;94770.41;;;7.53;79.70
84859;BME280;75115;42.984;23.244;2024-03-02T06:05:24;94770.59;;;7.43;80.48
84859;BME280;75115;42.984;23.244;2024-03-02T06:07:50;94769.78;;;7.43;80.91
84859;BME280;75115;42.984;23.244;2024-03-02T06:10:15;94770.09;;;7.40;80.89
84859;BME280;75115;42.984;23.244;2024-03-02T06:12:41;94772.69;;;7.40;81.02
84859;BME280;75115;42.984;23.244;2024-03-02T06:15:06;94772.38;;;7.43;80.27
84859;BME280;75115;42.984;23.244;2024-03-02T06:17:32;94771.38;;;7.44;80.40
84859;BME280;75115;42.984;23.244;2024-03-02T06:19:57;94773.63;;;7.55;80.14
84859;BME280;75115;42.984;23.244;2024-03-02T06:22:23;94774.56;;;7.62;80.67
84859;BME280;75115;42.984;23.244;2024-03-02T06:24:50;94771.94;;;7.70;80.59
84859;BME280;75115;42.984;23.244;2024-03-02T06:27:16;94771.63;;;7.73;79.98
84859;BME280;75115;42.984;23.244;2024-03-02T06:29:41;94770.66;;;7.74;78.92
84859;BME280;75115;42.984;23.244;2024-03-02T06:32:07;94764.69;;;7.74;79.59
84859;BME280;75115;42.984;23.244;2024-03-02T06:34:32;94774.66;;;7.85;79.70
84859;BME280;75115;42.984;23.244;2024-03-02T06:36:58;94783.88;;;7.80;80.40
84859;BME280;75115;42.984;23.244;2024-03-02T06:39:23;94780.84;;;7.76;79.62
84859;BME280;75115;42.984;23.244;2024-03-02T06:41:48;94783.88;;;7.80;79.74
84859;BME280;75115;42.984;23.244;2024-03-02T06:44:14;94789.53;;;7.75;80.32
84859;BME280;75115;42.984;23.244;2024-03-02T06:46:39;94785.50;;;7.72;79.77
84859;BME280;75115;42.984;23.244;2024-03-02T06:49:05;94790.34;;;7.75;81.35
84859;BME280;75115;42.984;23.244;2024-03-02T06:51:30;94790.69;;;7.64;80.79
84859;BME280;75115;42.984;23.244;2024-03-02T06:53:56;94786.84;;;7.60;80.78
84859;BME280;75115;42.984;23.244;2024-03-02T06:56:21;94788.44;;;7.61;81.40
84859;BME280;75115;42.984;23.244;2024-03-02T06:58:47;94788.94;;;7.57;81.25
84859;BME280;75115;42.984;23.244;2024-03-02T07:01:12;94784.59;;;7.49;81.46
84859;BME280;75115;42.984;23.244;2024-03-02T07:03:38;94796.19;;;7.53;82.54
84859;BME280;75115;42.984;23.244;2024-03-02T07:06:05;94798.78;;;7.53;81.82
84859;BME280;75115;42.984;23.244;2024-03-02T07:08:31;94803.31;;;7.51;81.84
84859;BME280;75115;42.984;23.244;2024-03-02T07:10:56;94798.81;;;7.29;82.77
84859;BME280;75115;42.984;23.244;2024-03-02T07:13:22;94801.88;;;7.32;83.00
84859;BME280;75115;42.984;23.244;2024-03-02T07:15:48;94801.25;;;7.30;83.27
84859;BME280;75115;42.984;23.244;2024-03-02T07:18:29;94805.09;;;7.42;82.86
84859;BME280;75115;42.984;23.244;2024-03-02T07:20:56;94797.03;;;7.37;83.36
84859;BME280;75115;42.984;23.244;2024-03-02T07:23:23;94798.00;;;7.44;83.28
84859;BME280;75115;42.984;23.244;2024-03-02T07:25:52;94798.16;;;7.51;82.61
84859;BME280;75115;42.984;23.244;2024-03-02T07:28:20;94797.50;;;7.49;82.68
84859;BME280;75115;42.984;23.244;2024-03-02T07:30:45;94810.06;;;7.60;81.80
84859;BME280;75115;42.984;23.244;2024-03-02T07:33:11;94808.09;;;7.62;81.40
84859;BME280;75115;42.984;23.244;2024-03-02T07:35:36;94806.00;;;7.74;81.28
84859;BME280;75115;42.984;23.244;2024-03-02T07:38:02;94809.53;;;7.81;80.37
84859;BME280;75115;42.984;23.244;2024-03-02T07:40:28;94815.50;;;7.82;81.34
84859;BME280;75115;42.984;23.244;2024-03-02T07:42:54;94815.97;;;7.85;81.03
84859;BME280;75115;42.984;23.244;2024-03-02T07:45:20;94819.34;;;7.86;80.07
84859;BME280;75115;42.984;23.244;2024-03-02T07:47:46;94815.19;;;7.77;81.03
84859;BME280;75115;42.984;23.244;2024-03-02T07:50:11;94820.66;;;7.82;81.32
84859;BME280;75115;42.984;23.244;2024-03-02T07:52:37;94819.97;;;7.88;80.00
84859;BME280;75115;42.984;23.244;2024-03-02T07:55:02;94815.00;;;7.86;80.03
84859;BME280;75115;42.984;23.244;2024-03-02T07:57:28;94814.00;;;7.87;79.72
84859;BME280;75115;42.984;23.244;2024-03-02T07:59:53;94818.25;;;7.80;80.60
84859;BME280;75115;42.984;23.244;2024-03-02T08:02:19;94816.31;;;7.74;81.70
84859;BME280;75115;42.984;23.244;2024-03-02T08:04:45;94812.28;;;7.80;80.97
84859;BME280;75115;42.984;23.244;2024-03-02T08:07:11;94813.88;;;7.89;81.24
84859;BME280;75115;42.984;23.244;2024-03-02T08:09:36;94806.97;;;7.73;80.90
84859;BME280;75115;42.984;23.244;2024-03-02T08:12:02;94819.69;;;7.83;81.67
84859;BME280;75115;42.984;23.244;2024-03-02T08:14:27;94818.88;;;7.82;81.44
84859;BME280;75115;42.984;23.244;2024-03-02T08:16:53;94815.97;;;7.85;80.53
84859;BME280;75115;42.984;23.244;2024-03-02T08:19:18;94822.72;;;7.94;81.24
84859;BME280;75115;42.984;23.244;2024-03-02T08:21:44;94826.63;;;7.74;81.47
84859;BME280;75115;42.984;23.244;2024-03-02T08:24:09;94825.97;;;7.88;82.03
84859;BME280;75115;42.984;23.244;2024-03-02T08:26:35;94821.59;;;7.97;80.57
84859;BME280;75115;42.984;23.244;2024-03-02T08:29:01;94824.16;;;8.05;80.22
84859;BME280;75115;42.984;23.244;2024-03-02T08:31:28;94824.94;;;8.06;80.67
84859;BME280;75115;42.984;23.244;2024-03-02T08:33:54;94813.31;;;8.10;80.59
84859;BME280;75115;42.984;23.244;2024-03-02T08:36:19;94813.94;;;8.12;79.72
84859;BME280;75115;42.984;23.244;2024-03-02T08:38:45;94815.91;;;8.10;78.66
84859;BME280;75115;42.984;23.244;2024-03-02T08:41:11;94816.22;;;8.07;79.57
84859;BME280;75115;42.984;23.244;2024-03-02T08:43:40;94822.19;;;8.07;80.13
84859;BME280;75115;42.984;23.244;2024-03-02T08:46:05;94821.88;;;8.10;80.63
84859;BME280;75115;42.984;23.244;2024-03-02T08:48:31;94828.84;;;7.93;80.08
84859;BME280;75115;42.984;23.244;2024-03-02T08:50:56;94826.47;;;7.84;82.27
84859;BME280;75115;42.984;23.244;2024-03-02T08:53:22;94818.88;;;7.82;81.16
84859;BME280;75115;42.984;23.244;2024-03-02T08:55:47;94822.41;;;7.89;81.16
84859;BME280;75115;42.984;23.244;2024-03-02T08:58:13;94822.22;;;7.99;79.77
84859;BME280;75115;42.984;23.244;2024-03-02T09:00:38;94818.84;;;7.90;80.39
84859;BME280;75115;42.984;23.244;2024-03-02T09:03:04;94818.53;;;7.93;80.20
84859;BME280;75115;42.984;23.244;2024-03-02T09:05:29;94819.06;;;7.81;81.39
84859;BME280;75115;42.984;23.244;2024-03-02T09:07:55;94832.75;;;7.81;79.67
84859;BME280;75115;42.984;23.244;2024-03-02T09:10:20;94831.78;;;7.82;80.16
84859;BME280;75115;42.984;23.244;2024-03-02T09:12:46;94828.91;;;7.77;81.45
84859;BME280;75115;42.984;23.244;2024-03-02T09:15:11;94834.69;;;7.71;81.20
84859;BME280;75115;42.984;23.244;2024-03-02T09:17:37;94834.03;;;7.85;80.87
84859;BME280;75115;42.984;23.244;2024-03-02T09:20:03;94835.44;;;7.96;80.00
84859;BME280;75115;42.984;23.244;2024-03-02T09:22:29;94836.91;;;7.98;79.30
84859;BME280;75115;42.984;23.244;2024-03-02T09:24:55;94842.25;;;7.97;79.92
84859;BME280;75115;42.984;23.244;2024-03-02T09:27:21;94840.59;;;8.04;80.37
84859;BME280;75115;42.984;23.244;2024-03-02T09:29:47;94840.63;;;7.96;81.20
84859;BME280;75115;42.984;23.244;2024-03-02T09:32:13;94842.38;;;8.04;79.59
84859;BME280;75115;42.984;23.244;2024-03-02T09:34:39;94843.38;;;7.94;80.39
84859;BME280;75115;42.984;23.244;2024-03-02T09:37:06;94833.25;;;7.77;80.06
84859;BME280;75115;42.984;23.244;2024-03-02T09:39:31;94842.78;;;7.84;80.93
84859;BME280;75115;42.984;23.244;2024-03-02T09:41:57;94846.47;;;7.82;80.90
84859;BME280;75115;42.984;23.244;2024-03-02T09:44:24;94848.72;;;7.85;81.21
84859;BME280;75115;42.984;23.244;2024-03-02T09:46:50;94845.72;;;7.57;81.88
84859;BME280;75115;42.984;23.244;2024-03-02T09:49:16;94853.78;;;7.37;82.29
84859;BME280;75115;42.984;23.244;2024-03-02T09:51:47;94857.34;;;7.20;84.11
84859;BME280;75115;42.984;23.244;2024-03-02T09:54:12;94856.53;;;7.28;83.05
84859;BME280;75115;42.984;23.244;2024-03-02T09:56:38;94850.72;;;7.50;82.07
84859;BME280;75115;42.984;23.244;2024-03-02T09:59:04;94844.72;;;7.58;82.31
84859;BME280;75115;42.984;23.244;2024-03-02T10:01:30;94847.28;;;7.74;82.30
84859;BME280;75115;42.984;23.244;2024-03-02T10:03:59;94845.00;;;7.87;81.89
84859;BME280;75115;42.984;23.244;2024-03-02T10:06:26;94849.50;;;8.02;79.88
84859;BME280;75115;42.984;23.244;2024-03-02T10:08:52;94849.97;;;8.05;79.57
84859;BME280;75115;42.984;23.244;2024-03-02T10:11:32;94847.53;;;8.04;79.08
84859;BME280;75115;42.984;23.244;2024-03-02T10:14:24;94852.69;;;8.12;80.03
84859;BME280;75115;42.984;23.244;2024-03-02T10:16:50;94846.88;;;8.18;79.13
84859;BME280;75115;42.984;23.244;2024-03-02T10:19:16;94849.09;;;8.21;78.12
84859;BME280;75115;42.984;23.244;2024-03-02T10:21:48;94836.56;;;8.10;78.91
84859;BME280;75115;42.984;23.244;2024-03-02T10:24:15;94850.25;;;8.18;79.20
84859;BME280;75115;42.984;23.244;2024-03-02T10:26:40;94847.69;;;8.10;80.64
84859;BME280;75115;42.984;23.244;2024-03-02T10:29:08;94855.13;;;8.13;79.54
84859;BME280;75115;42.984;23.244;2024-03-02T10:31:33;94848.19;;;8.06;80.66
84859;BME280;75115;42.984;23.244;2024-03-02T10:33:59;94845.16;;;7.94;80.11
84859;BME280;75115;42.984;23.244;2024-03-02T10:36:25;94850.63;;;7.91;81.76
84859;BME280;75115;42.984;23.244;2024-03-02T10:38:51;94848.66;;;8.09;79.84
84859;BME280;75115;42.984;23.244;2024-03-02T10:41:23;94841.22;;;8.14;79.62
84859;BME280;75115;42.984;23.244;2024-03-02T10:43:51;94845.84;;;8.27;79.81
84859;BME280;75115;42.984;23.244;2024-03-02T10:46:19;94836.78;;;8.31;79.75
84859;BME280;75115;42.984;23.244;2024-03-02T10:48:46;94839.66;;;8.36;79.93
84859;BME280;75115;42.984;23.244;2024-03-02T10:51:11;94836.56;;;8.10;79.30
84859;BME280;75115;42.984;23.244;2024-03-02T10:53:37;94835.00;;;7.92;81.11
84859;BME280;75115;42.984;23.244;2024-03-02T10:56:07;94829.75;;;8.09;80.83
84859;BME280;75115;42.984;23.244;2024-03-02T10:58:33;94826.88;;;8.04;80.00
84859;BME280;75115;42.984;23.244;2024-03-02T11:01:02;94835.41;;;8.12;79.98
84859;BME280;75115;42.984;23.244;2024-03-02T11:03:35;94821.94;;;8.25;79.71
84859;BME280;75115;42.984;23.244;2024-03-02T11:06:03;94824.34;;;8.35;79.78
84859;BME280;75115;42.984;23.244;2024-03-02T11:08:32;94823.88;;;8.39;79.63
84859;BME280;75115;42.984;23.244;2024-03-02T11:11:06;94823.34;;;8.44;78.77
84859;BME280;75115;42.984;23.244;2024-03-02T11:13:33;94826.06;;;8.50;79.28
84859;BME280;75115;42.984;23.244;2024-03-02T11:16:06;94817.78;;;8.55;78.50
84859;BME280;75115;42.984;23.244;2024-03-02T11:18:36;94823.97;;;8.46;78.35
84859;BME280;75115;42.984;23.244;2024-03-02T11:21:02;94824.16;;;8.44;77.96
84859;BME280;75115;42.984;23.244;2024-03-02T11:23:32;94821.88;;;8.49;78.50
84859;BME280;75115;42.984;23.244;2024-03-02T11:26:21;94825.09;;;8.52;78.38
84859;BME280;75115;42.984;23.244;2024-03-02T11:28:47;94826.19;;;8.57;77.81
84859;BME280;75115;42.984;23.244;2024-03-02T11:31:12;94823.09;;;8.62;79.24
84859;BME280;75115;42.984;23.244;2024-03-02T11:33:38;94812.13;;;8.60;78.17
84859;BME280;75115;42.984;23.244;2024-03-02T11:36:03;94810.50;;;8.59;78.86
84859;BME280;75115;42.984;23.244;2024-03-02T11:38:35;94814.72;;;8.60;78.10
84859;BME280;75115;42.984;23.244;2024-03-02T11:41:02;94817.63;;;8.57;78.80
84859;BME280;75115;42.984;23.244;2024-03-02T11:43:32;94821.69;;;8.51;79.43
84859;BME280;75115;42.984;23.244;2024-03-02T11:46:04;94815.16;;;8.63;78.84
84859;BME280;75115;42.984;23.244;2024-03-02T11:48:32;94818.41;;;8.65;78.53
84859;BME280;75115;42.984;23.244;2024-03-02T11:51:00;94818.00;;;8.45;78.92
84859;BME280;75115;42.984;23.244;2024-03-02T11:53:27;94815.75;;;8.34;78.39
84859;BME280;75115;42.984;23.244;2024-03-02T11:55:58;94813.56;;;8.23;80.35
84859;BME280;75115;42.984;23.244;2024-03-02T11:58:24;94813.09;;;8.19;81.34
84859;BME280;75115;42.984;23.244;2024-03-02T12:00:53;94814.56;;;8.22;80.36
84859;BME280;75115;42.984;23.244;2024-03-02T12:03:22;94816.91;;;8.40;79.21
84859;BME280;75115;42.984;23.244;2024-03-02T12:05:52;94814.00;;;8.43;79.43
84859;BME280;75115;42.984;23.244;2024-03-02T12:08:18;94813.19;;;8.42;79.18
84859;BME280;75115;42.984;23.244;2024-03-02T12:10:56;94810.72;;;8.49;80.23
84859;BME280;75115;42.984;23.244;2024-03-02T12:13:21;94812.00;;;8.53;79.76
84859;BME280;75115;42.984;23.244;2024-03-02T12:15:47;94812.75;;;8.62;78.94
84859;BME280;75115;42.984;23.244;2024-03-02T12:18:13;94816.00;;;8.64;78.24
84859;BME280;75115;42.984;23.244;2024-03-02T12:20:38;94816.31;;;8.61;79.10
84859;BME280;75115;42.984;23.244;2024-03-02T12:23:04;94809.41;;;8.53;79.19
84859;BME280;75115;42.984;23.244;2024-03-02T12:25:31;94818.47;;;8.49;80.36
84859;BME280;75115;42.984;23.244;2024-03-02T12:28:00;94817.69;;;8.48;79.24
84859;BME280;75115;42.984;23.244;2024-03-02T12:30:28;94811.03;;;8.54;78.76
84859;BME280;75115;42.984;23.244;2024-03-02T12:32:54;94810.34;;;8.60;80.56
84859;BME280;75115;42.984;23.244;2024-03-02T12:35:20;94808.34;;;8.70;78.72
84859;BME280;75115;42.984;23.244;2024-03-02T12:37:49;94813.00;;;8.75;78.28
84859;BME280;75115;42.984;23.244;2024-03-02T12:40:16;94800.72;;;8.77;79.02
84859;BME280;75115;42.984;23.244;2024-03-02T12:42:43;94808.75;;;8.82;77.38
84859;BME280;75115;42.984;23.244;2024-03-02T12:45:09;94812.59;;;8.86;77.34
84859;BME280;75115;42.984;23.244;2024-03-02T12:47:35;94811.63;;;8.87;78.87
84859;BME280;75115;42.984;23.244;2024-03-02T12:50:01;94812.59;;;8.86;78.13
84859;BME280;75115;42.984;23.244;2024-03-02T12:52:27;94813.59;;;8.85;79.08
84859;BME280;75115;42.984;23.244;2024-03-02T12:54:53;94812.19;;;8.74;79.77
84859;BME280;75115;42.984;23.244;2024-03-02T12:57:25;94822.41;;;8.68;79.36
84859;BME280;75115;42.984;23.244;2024-03-02T12:59:51;94822.59;;;8.66;79.99
84859;BME280;75115;42.984;23.244;2024-03-02T13:02:18;94828.72;;;8.65;78.86